Terminal Aerodrome Forecast
Issued by NWS

Home | Current Version | Previous Version | Graphics & Text | Print | Product List | Glossary On
Versions: 1 2 3 4 5 6 7 8 9 10 11 12 13 14 15
000
FTUS43 KBIS 272300
TAFMOT
TAF
KMOT 272331Z 2800/2824 33011KT P6SM SCT035 BKN045
     FM280300 34004KT P6SM SCT035 SCT050
     FM280600 28003KT P6SM FEW045
     FM281600 34004KT P6SM SCT050
     FM281900 02007KT P6SM SCT060=

USA.gov is the U.S. government's official web portal to all federal, state and local government web resources and services.